Time;durP1;ratioP1;P1;durP2;ratioP2;P2;SDS_P1;SDS_P2;PMS_P1;PMS_P2;Temp;Humidity;BMP_temperature;BMP_pressure;BME280_temperature;BME280_humidity;BME280_pressure;Samples;Min_cycle;Max_cycle;Signal;HPM_P1;HPM_P2
2023/12/28 00:01:23;;;;;;;25.70;13.40;;;;;;;1.83;75.03;97537.23;104993;1267;97998;-78
2023/12/28 00:03:51;;;;;;;23.80;12.20;;;;;;;1.91;74.94;97536.80;105040;1258;98343;-79
2023/12/28 00:06:19;;;;;;;22.60;12.20;;;;;;;2.06;74.89;97529.40;104951;1254;103186;-73
2023/12/28 00:08:48;;;;;;;23.30;12.00;;;;;;;2.16;74.65;97533.90;104937;1265;100419;-73
2023/12/28 00:11:16;;;;;;;21.40;11.40;;;;;;;2.24;74.53;97534.36;105008;1257;100072;-73
2023/12/28 00:13:44;;;;;;;27.00;11.80;;;;;;;2.31;74.42;97541.10;104939;1267;98846;-74
2023/12/28 00:16:12;;;;;;;20.40;11.20;;;;;;;2.34;74.31;97535.02;104945;1260;99194;-82
2023/12/28 00:18:48;;;;;;;21.10;10.80;;;;;;;2.37;74.19;97535.67;104989;1258;103527;-80
2023/12/28 00:21:39;;;;;;;50.90;20.60;;;;;;;2.41;74.16;97530.91;105003;1267;101064;-82
2023/12/28 00:24:21;;;;;;;25.40;12.40;;;;;;;2.47;74.08;97522.02;104985;1261;100169;-83
2023/12/28 00:26:58;;;;;;;21.70;10.90;;;;;;;2.47;73.91;97519.35;104996;1271;97883;-82
2023/12/28 00:29:54;;;;;;;20.90;11.00;;;;;;;2.47;73.99;97518.09;105027;1257;99662;-81
2023/12/28 00:32:44;;;;;;;21.30;11.20;;;;;;;2.50;74.01;97511.05;104999;1266;103194;-79
2023/12/28 00:35:41;;;;;;;20.00;10.40;;;;;;;2.53;73.87;97507.16;104931;1258;101560;-80
2023/12/28 00:38:39;;;;;;;20.30;10.60;;;;;;;2.56;73.87;97502.11;104950;1270;99095;-79
2023/12/28 00:41:07;;;;;;;17.00;10.20;;;;;;;2.59;73.85;97500.19;104764;1276;97911;-79
2023/12/28 00:43:45;;;;;;;19.30;10.50;;;;;;;2.61;73.74;97504.58;104991;1257;98607;-79
2023/12/28 00:46:15;;;;;;;21.10;11.10;;;;;;;2.64;73.85;97510.45;104983;1257;103423;-82
2023/12/28 00:48:46;;;;;;;44.90;18.10;;;;;;;2.68;73.78;97511.69;104893;1257;101308;-82
2023/12/28 00:51:52;;;;;;;61.50;30.10;;;;;;;2.69;73.78;97510.63;104885;1257;98562;-82
2023/12/28 00:54:49;;;;;;;27.30;13.40;;;;;;;2.67;73.68;97508.91;104918;1257;97917;-82
2023/12/28 00:57:56;;;;;;;19.40;10.80;;;;;;;2.65;73.71;97507.40;104879;1270;98459;-82
2023/12/28 01:00:32;;;;;;;28.10;13.50;;;;;;;2.68;74.11;97496.04;104972;1266;103159;-81
2023/12/28 01:03:10;;;;;;;26.30;11.70;;;;;;;2.75;74.06;97487.88;104931;1257;101343;-74
2023/12/28 01:05:58;;;;;;;19.00;9.40;;;;;;;2.77;73.98;97485.98;104998;1257;99310;-76
2023/12/28 01:08:55;;;;;;;18.20;9.30;;;;;;;2.78;73.87;97484.32;104886;1270;98791;-74
2023/12/28 01:11:51;;;;;;;21.10;10.40;;;;;;;2.77;73.90;97481.76;104922;1257;98017;-74
2023/12/28 01:14:28;;;;;;;18.90;9.60;;;;;;;2.77;73.84;97476.79;104952;1267;103425;-74
2023/12/28 01:17:15;;;;;;;18.00;9.30;;;;;;;2.75;73.81;97469.52;104982;1257;100403;-81
2023/12/28 01:20:10;;;;;;;18.20;10.50;;;;;;;2.75;73.96;97465.66;104880;1267;101195;-81
2023/12/28 01:22:46;;;;;;;23.40;11.50;;;;;;;2.76;73.96;97466.44;104947;1258;97964;-83
2023/12/28 01:25:42;;;;;;;23.10;13.20;;;;;;;2.82;74.41;97458.52;104991;1257;98444;-81
2023/12/28 01:28:29;;;;;;;25.80;12.90;;;;;;;2.91;74.37;97457.54;104938;1257;103030;-81
2023/12/28 01:31:14;;;;;;;33.00;15.10;;;;;;;2.95;74.37;97451.35;104961;1257;101181;-78
2023/12/28 01:33:49;;;;;;;34.30;14.30;;;;;;;2.96;74.30;97444.66;104911;1261;99340;-81
2023/12/28 01:36:44;;;;;;;26.40;11.30;;;;;;;2.97;74.20;97441.73;104944;1254;98929;-80
2023/12/28 01:39:21;;;;;;;24.90;11.50;;;;;;;2.98;74.23;97436.66;105005;1258;98489;-79
2023/12/28 01:41:58;;;;;;;23.20;11.60;;;;;;;3.01;74.37;97432.14;104956;1257;102506;-72
2023/12/28 01:44:35;;;;;;;18.70;9.60;;;;;;;3.04;74.49;97428.43;105006;1257;101071;-83
2023/12/28 01:47:12;;;;;;;28.50;12.30;;;;;;;3.06;74.55;97427.05;104936;1256;100251;-79
2023/12/28 01:50:03;;;;;;;22.30;10.10;;;;;;;3.10;74.51;97428.12;104934;1254;97921;-79
2023/12/28 01:52:42;;;;;;;21.40;10.40;;;;;;;3.12;74.41;97423.10;104977;1256;97825;-79
2023/12/28 01:55:50;;;;;;;22.10;10.00;;;;;;;3.17;74.41;97422.02;104933;1257;102230;-80
2023/12/28 01:58:57;;;;;;;23.70;10.60;;;;;;;3.20;74.44;97425.73;104918;1254;101424;-81
2023/12/28 02:01:56;;;;;;;25.20;13.00;;;;;;;3.24;74.36;97423.75;104966;1257;100195;-79
2023/12/28 02:04:47;;;;;;;17.20;9.20;;;;;;;3.29;74.46;97419.87;104930;1273;99291;-81
2023/12/28 02:07:55;;;;;;;14.90;8.40;;;;;;;3.37;74.60;97421.05;104990;1258;98395;-80
2023/12/28 02:11:03;;;;;;;14.10;7.50;;;;;;;3.43;74.72;97417.88;105037;1257;103727;-81
2023/12/28 02:14:00;;;;;;;16.60;8.80;;;;;;;3.52;74.60;97411.20;104924;1257;101666;-80
2023/12/28 02:17:14;;;;;;;19.00;9.20;;;;;;;3.53;74.42;97406.20;104983;1276;99287;-81
2023/12/28 02:20:22;;;;;;;16.30;8.40;;;;;;;3.51;74.24;97409.20;104815;1257;98447;-73
2023/12/28 02:23:19;;;;;;;14.20;8.00;;;;;;;3.51;74.33;97405.83;104327;1260;98644;-73
2023/12/28 02:26:16;;;;;;;20.70;10.10;;;;;;;3.51;74.26;97405.66;104392;1265;103316;-82
2023/12/28 02:29:13;;;;;;;14.10;7.90;;;;;;;3.51;74.48;97403.12;104391;1270;99913;-81
2023/12/28 02:32:06;;;;;;;13.80;7.40;;;;;;;3.58;74.64;97398.27;104355;1276;98824;-74
2023/12/28 02:34:41;;;;;;;13.40;8.40;;;;;;;3.62;74.51;97389.36;104314;1279;98136;-73
2023/12/28 02:37:29;;;;;;;13.80;7.70;;;;;;;3.63;74.53;97389.58;104427;1265;98428;-73
2023/12/28 02:39:57;;;;;;;14.30;7.80;;;;;;;3.63;74.53;97384.06;104396;1268;103696;-82
2023/12/28 02:42:55;;;;;;;14.80;7.60;;;;;;;3.63;74.59;97390.41;104359;1268;101318;-80
2023/12/28 02:46:04;;;;;;;15.30;7.80;;;;;;;3.68;74.59;97389.78;104320;1265;99287;-80
2023/12/28 02:48:31;;;;;;;14.10;7.20;;;;;;;3.71;74.61;97380.84;104391;1265;97915;-81
2023/12/28 02:51:19;;;;;;;14.50;8.00;;;;;;;3.77;74.71;97378.74;104464;1260;98458;-81
2023/12/28 02:54:26;;;;;;;13.30;7.40;;;;;;;3.81;74.69;97384.52;104400;1265;103558;-80
2023/12/28 02:57:33;;;;;;;12.70;7.20;;;;;;;3.89;74.69;97388.23;104363;1277;108944;-82
2023/12/28 03:00:24;;;;;;;14.20;7.20;;;;;;;3.91;74.51;97384.77;104558;1273;99453;-79
2023/12/28 03:03:32;;;;;;;11.80;6.90;;;;;;;3.94;74.53;97372.36;104796;1266;97933;-76
2023/12/28 03:06:08;;;;;;;12.10;7.30;;;;;;;4.01;74.60;97367.42;104905;1254;98351;-73
2023/12/28 03:08:41;;;;;;;11.30;6.30;;;;;;;4.05;74.59;97374.62;104941;1258;103780;-76
2023/12/28 03:11:20;;;;;;;12.50;7.80;;;;;;;4.13;74.68;97365.61;104908;1258;101240;-74
2023/12/28 03:14:18;;;;;;;14.30;6.70;;;;;;;4.23;74.56;97359.69;104893;1257;99382;-74
2023/12/28 03:17:25;;;;;;;10.90;6.80;;;;;;;4.26;74.36;97358.32;104871;1259;98849;-80
2023/12/28 03:20:22;;;;;;;9.60;6.60;;;;;;;4.32;74.39;97363.31;104880;1258;98418;-74
2023/12/28 03:23:01;;;;;;;9.50;6.10;;;;;;;4.37;74.28;97369.73;104912;1254;103589;-81
2023/12/28 03:25:49;;;;;;;11.90;6.60;;;;;;;4.39;74.09;97368.22;104951;1257;100294;-81
2023/12/28 03:28:57;;;;;;;13.30;6.60;;;;;;;4.40;74.02;97364.31;104865;1258;99727;-85
2023/12/28 03:31:33;;;;;;;10.80;6.00;;;;;;;4.42;73.94;97358.63;104971;1265;97973;-81
2023/12/28 03:34:38;;;;;;;9.80;6.30;;;;;;;4.45;73.93;97358.83;104879;1257;97950;-82
2023/12/28 03:37:46;;;;;;;8.20;5.30;;;;;;;4.49;73.89;97355.14;104820;1257;103874;-81
2023/12/28 03:40:55;;;;;;;10.00;6.30;;;;;;;4.51;73.83;97351.18;104873;1257;101403;-80
2023/12/28 03:44:02;;;;;;;9.10;5.60;;;;;;;4.55;73.86;97349.98;104779;1254;99894;-81
2023/12/28 03:47:10;;;;;;;17.70;8.90;;;;;;;4.58;73.79;97346.17;104942;1259;97896;-73
2023/12/28 03:50:17;;;;;;;26.20;10.70;;;;;;;4.57;73.57;97344.59;104901;1254;98310;-75
2023/12/28 03:53:04;;;;;;;25.30;10.40;;;;;;;4.53;73.55;97343.02;104888;1272;102367;-75
2023/12/28 03:55:52;;;;;;;15.30;7.40;;;;;;;4.52;73.58;97348.52;104933;1267;101155;-73
2023/12/28 03:58:43;;;;;;;24.50;12.00;;;;;;;4.50;73.50;97349.15;104982;1266;100380;-80
2023/12/28 04:01:40;;;;;;;16.40;8.10;;;;;;;4.48;73.43;97349.04;104999;1254;98400;-79
2023/12/28 04:04:36;;;;;;;9.70;5.90;;;;;;;4.44;73.37;97352.91;104915;1267;98346;-80
2023/12/28 04:07:44;;;;;;;12.10;5.60;;;;;;;4.43;73.62;97356.21;104997;1258;103772;-80
2023/12/28 04:10:52;;;;;;;8.40;5.90;;;;;;;4.44;73.54;97356.98;104948;1257;100724;-80
2023/12/28 04:14:00;;;;;;;10.30;6.10;;;;;;;4.44;73.53;97352.34;104954;1256;107010;-80
2023/12/28 04:17:09;;;;;;;7.40;4.80;;;;;;;4.44;73.63;97351.30;104868;1260;98011;-72
2023/12/28 04:20:09;;;;;;;8.90;5.30;;;;;;;4.48;73.59;97348.96;104943;1258;97861;-72
2023/12/28 04:23:18;;;;;;;9.70;6.30;;;;;;;4.54;73.56;97355.22;104899;1257;103632;-73
2023/12/28 04:26:26;;;;;;;9.60;6.10;;;;;;;4.61;73.59;97349.77;104874;1267;100388;-74
2023/12/28 04:29:16;;;;;;;10.70;5.70;;;;;;;4.76;73.80;97347.21;104984;1257;98885;-72
2023/12/28 04:32:12;;;;;;;10.40;5.20;;;;;;;4.82;73.46;97339.20;104864;1255;97908;-73
2023/12/28 04:35:21;;;;;;;8.20;4.90;;;;;;;4.88;73.05;97331.56;104890;1253;98403;-79
2023/12/28 04:38:19;;;;;;;9.00;5.00;;;;;;;4.94;72.91;97336.16;104891;1257;103332;-74
2023/12/28 04:41:26;;;;;;;8.40;5.40;;;;;;;4.99;72.58;97342.71;104856;1258;101846;-72
2023/12/28 04:44:34;;;;;;;9.30;5.30;;;;;;;5.04;72.50;97340.89;104899;1254;98678;-74
2023/12/28 04:47:43;;;;;;;9.70;5.10;;;;;;;5.04;72.12;97342.52;104921;1254;97946;-72
2023/12/28 04:50:18;;;;;;;10.00;5.10;;;;;;;5.06;72.12;97347.42;104956;1257;98340;-72
2023/12/28 04:53:26;;;;;;;10.80;5.20;;;;;;;5.08;71.84;97343.45;104942;1253;103115;-72
2023/12/28 04:56:34;;;;;;;10.20;5.00;;;;;;;5.12;71.85;97349.41;104977;1269;101479;-77
2023/12/28 04:59:42;;;;;;;12.10;5.20;;;;;;;5.13;71.35;97348.06;104973;1254;98909;-80
2023/12/28 05:02:50;;;;;;;8.50;5.20;;;;;;;5.18;71.40;97349.98;104911;1257;97903;-75
2023/12/28 05:05:30;;;;;;;8.90;4.90;;;;;;;5.21;70.59;97348.20;105035;1267;99150;-75
2023/12/28 05:08:12;;;;;;;7.90;4.90;;;;;;;5.23;69.96;97347.89;104925;1256;103704;-76
2023/12/28 05:10:58;;;;;;;7.00;4.60;;;;;;;5.26;70.18;97345.96;104957;1259;101567;-75
2023/12/28 05:13:59;;;;;;;8.20;5.10;;;;;;;5.26;70.36;97354.56;104944;1256;99709;-79
2023/12/28 05:17:08;;;;;;;11.30;4.90;;;;;;;5.24;69.99;97362.43;104809;1257;97959;-76
2023/12/28 05:20:16;;;;;;;6.80;4.90;;;;;;;5.21;69.64;97356.61;104932;1267;98411;-74
2023/12/28 05:23:23;;;;;;;8.20;4.80;;;;;;;5.19;69.54;97363.38;104945;1257;103551;-75
2023/12/28 05:26:31;;;;;;;8.80;4.90;;;;;;;5.19;69.15;97366.76;104960;1257;101245;-74
2023/12/28 05:29:39;;;;;;;8.90;4.70;;;;;;;5.20;69.36;97362.23;104908;1256;99516;-74
2023/12/28 05:32:46;;;;;;;7.10;4.30;;;;;;;5.19;69.14;97356.71;104935;1266;97922;-73
2023/12/28 05:35:54;;;;;;;7.50;4.50;;;;;;;5.18;69.22;97359.26;104899;1259;99119;-73
2023/12/28 05:39:01;;;;;;;5.80;4.10;;;;;;;5.17;69.43;97354.70;104883;1256;104201;-73
2023/12/28 05:42:09;;;;;;;10.10;4.80;;;;;;;5.18;69.42;97353.77;104849;1259;101612;-73
2023/12/28 05:45:07;;;;;;;7.80;4.60;;;;;;;5.19;69.36;97354.27;104941;1267;99868;-72
2023/12/28 05:47:54;;;;;;;11.10;5.10;;;;;;;5.22;69.37;97357.83;104938;1253;97901;-81
2023/12/28 05:51:02;;;;;;;8.10;4.80;;;;;;;5.27;69.29;97352.89;104970;1256;98424;-73
2023/12/28 05:54:00;;;;;;;7.00;4.50;;;;;;;5.28;69.38;97348.23;104907;1257;103741;-74
2023/12/28 05:57:09;;;;;;;7.60;4.60;;;;;;;5.31;69.42;97345.41;104933;1253;101319;-74
2023/12/28 06:00:10;;;;;;;6.60;4.10;;;;;;;5.33;69.33;97346.36;104908;1267;100110;-74
2023/12/28 06:03:06;;;;;;;7.30;4.60;;;;;;;5.34;69.23;97350.08;105040;1254;97915;-81
2023/12/28 06:06:05;;;;;;;9.40;4.70;;;;;;;5.33;69.36;97355.87;104973;1276;98325;-81
2023/12/28 06:09:03;;;;;;;7.00;5.00;;;;;;;5.32;69.23;97365.44;104962;1258;103526;-80
2023/12/28 06:12:00;;;;;;;7.10;4.30;;;;;;;5.32;69.52;97365.44;104925;1257;101591;-81
2023/12/28 06:14:31;;;;;;;9.40;4.50;;;;;;;5.35;69.55;97370.54;104868;1258;99153;-81
2023/12/28 06:17:27;;;;;;;8.40;5.30;;;;;;;5.37;69.35;97371.14;104956;1258;99125;-82
2023/12/28 06:20:25;;;;;;;7.70;5.10;;;;;;;5.34;69.18;97360.02;104950;1257;98410;-82
2023/12/28 06:23:00;;;;;;;7.30;5.20;;;;;;;5.34;69.17;97353.92;104850;1254;103489;-81
2023/12/28 06:26:07;;;;;;;9.40;5.20;;;;;;;5.34;69.26;97357.17;104968;1269;101574;-82
2023/12/28 06:28:45;;;;;;;8.20;4.50;;;;;;;5.28;69.27;97356.05;104948;1255;99942;-82
2023/12/28 06:31:54;;;;;;;9.10;4.80;;;;;;;5.26;69.33;97362.10;104864;1258;99230;-73
2023/12/28 06:34:48;;;;;;;8.90;5.70;;;;;;;5.27;69.53;97373.66;104855;1254;98437;-81
2023/12/28 06:37:56;;;;;;;8.70;5.20;;;;;;;5.29;69.56;97382.18;104951;1254;103756;-81
2023/12/28 06:41:03;;;;;;;8.60;5.10;;;;;;;5.30;69.60;97381.53;104920;1254;101491;-81
2023/12/28 06:43:54;;;;;;;10.30;5.80;;;;;;;5.30;69.53;97385.45;104893;1256;99634;-84
2023/12/28 06:46:50;;;;;;;11.40;5.80;;;;;;;5.30;69.59;97387.42;104910;1277;97829;-82
2023/12/28 06:49:38;;;;;;;10.10;6.00;;;;;;;5.30;69.54;97387.80;104944;1276;98325;-74
2023/12/28 06:52:06;;;;;;;12.40;6.90;;;;;;;5.31;69.55;97390.76;104885;1256;103630;-80
2023/12/28 06:55:14;;;;;;;10.30;5.80;;;;;;;5.31;69.60;97392.82;104901;1253;100361;-82
2023/12/28 06:58:15;;;;;;;10.00;6.10;;;;;;;5.31;69.47;97408.55;104885;1253;99964;-82
2023/12/28 07:01:26;;;;;;;10.40;6.80;;;;;;;5.31;69.42;97420.65;104899;1256;97904;-81
2023/12/28 07:04:34;;;;;;;14.20;7.30;;;;;;;5.32;69.27;97416.30;104921;1256;98761;-81
2023/12/28 07:07:36;;;;;;;8.40;5.80;;;;;;;5.32;69.32;97407.33;104959;1272;103809;-82
2023/12/28 07:10:45;;;;;;;10.50;6.10;;;;;;;5.32;69.28;97405.02;105051;1272;101682;-81
2023/12/28 07:13:53;;;;;;;11.70;5.90;;;;;;;5.32;69.14;97405.27;104918;1253;99866;-81
2023/12/28 07:16:51;;;;;;;9.60;5.50;;;;;;;5.33;69.25;97409.50;104968;1256;97944;-74
2023/12/28 07:19:59;;;;;;;10.90;5.60;;;;;;;5.33;69.20;97414.55;104904;1255;99160;-82
2023/12/28 07:23:08;;;;;;;12.70;6.10;;;;;;;5.33;69.12;97419.67;105054;1260;102281;-83
2023/12/28 07:26:17;;;;;;;11.90;5.40;;;;;;;5.34;69.12;97429.20;105047;1257;100466;-83
2023/12/28 07:29:25;;;;;;;11.30;5.90;;;;;;;5.37;69.21;97433.57;105047;1254;99705;-84
2023/12/28 07:32:26;;;;;;;13.50;6.90;;;;;;;5.39;69.28;97435.84;105102;1258;97905;-77
2023/12/28 07:35:28;;;;;;;9.20;5.70;;;;;;;5.39;69.23;97426.13;105143;1259;98428;-78
2023/12/28 07:38:38;;;;;;;11.70;6.60;;;;;;;5.44;69.15;97406.64;105142;1254;102288;-77
2023/12/28 07:41:46;;;;;;;15.70;9.30;;;;;;;5.51;69.28;97409.24;105121;1256;100546;-78
2023/12/28 07:44:53;;;;;;;9.10;5.40;;;;;;;5.57;69.22;97409.70;105235;1257;99761;-78
2023/12/28 07:48:03;;;;;;;13.10;6.90;;;;;;;5.63;69.35;97414.06;105086;1256;99216;-82
2023/12/28 07:51:11;;;;;;;27.10;9.50;;;;;;;5.68;69.35;97424.79;105107;1254;99119;-91
2023/12/28 07:54:20;;;;;;;11.80;7.70;;;;;;;5.75;69.58;97426.82;105062;1266;102630;-90
2023/12/28 07:57:27;;;;;;;15.90;9.90;;;;;;;5.81;69.42;97425.77;105063;1257;100357;-90
2023/12/28 08:00:35;;;;;;;15.20;9.60;;;;;;;5.84;69.36;97415.72;105029;1268;99313;-89
2023/12/28 08:03:43;;;;;;;12.60;7.60;;;;;;;5.88;69.25;97415.05;105069;1257;97928;-77
2023/12/28 08:06:50;;;;;;;14.70;7.70;;;;;;;5.95;69.30;97406.16;105156;1261;98512;-78
2023/12/28 08:09:48;;;;;;;16.60;8.80;;;;;;;6.01;69.22;97400.61;105036;1257;102815;-84
2023/12/28 08:12:57;;;;;;;13.20;7.10;;;;;;;6.08;69.30;97396.27;105001;1256;100514;-81
2023/12/28 08:16:05;;;;;;;11.80;6.70;;;;;;;6.11;69.23;97395.90;105138;1257;99219;-83
2023/12/28 08:19:13;;;;;;;12.80;6.00;;;;;;;6.13;69.15;97391.52;105037;1265;97974;-78
2023/12/28 08:22:10;;;;;;;10.40;6.60;;;;;;;6.19;69.19;97401.00;105086;1257;98871;-77
2023/12/28 08:25:18;;;;;;;12.60;7.10;;;;;;;6.24;69.15;97405.25;105195;1256;102638;-79
2023/12/28 08:28:27;;;;;;;9.60;6.40;;;;;;;6.28;69.10;97401.96;105228;1254;100437;-81
2023/12/28 08:31:35;;;;;;;13.10;6.50;;;;;;;6.36;69.24;97396.34;104917;1255;99154;-78
2023/12/28 08:34:42;;;;;;;10.00;6.00;;;;;;;6.44;69.09;97399.55;105079;1257;97961;-78
2023/12/28 08:37:50;;;;;;;11.60;6.40;;;;;;;6.54;68.97;97399.63;105071;1257;98402;-77
2023/12/28 08:40:46;;;;;;;10.70;6.00;;;;;;;6.63;68.82;97396.45;105157;1257;102663;-78
2023/12/28 08:43:55;;;;;;;9.80;6.00;;;;;;;6.71;68.81;97394.09;105105;1260;101490;-78
2023/12/28 08:46:45;;;;;;;11.90;6.00;;;;;;;6.81;68.95;97393.18;104899;1253;98684;-89
2023/12/28 08:49:48;;;;;;;11.00;6.90;;;;;;;6.94;68.83;97395.61;104977;1259;97908;-88
2023/12/28 08:53:05;;;;;;;10.10;6.20;;;;;;;7.07;68.28;97392.50;104982;1256;99595;-88
2023/12/28 08:56:03;;;;;;;9.90;5.70;;;;;;;7.20;67.96;97394.26;105127;1260;102789;-90
2023/12/28 08:59:07;;;;;;;8.30;4.80;;;;;;;7.33;67.85;97386.95;100832;1259;5375101;-87
2023/12/28 09:02:16;;;;;;;8.00;5.00;;;;;;;7.54;67.63;97388.92;104921;1258;100081;-79
2023/12/28 09:05:24;;;;;;;7.60;4.90;;;;;;;7.75;67.32;97386.26;104917;1254;97921;-87
2023/12/28 09:08:32;;;;;;;7.30;5.00;;;;;;;7.91;67.05;97375.44;104993;1257;98389;-79
2023/12/28 09:11:40;;;;;;;7.90;5.40;;;;;;;8.06;66.96;97372.80;104932;1257;103554;-78
2023/12/28 09:14:52;;;;;;;10.10;4.40;;;;;;;8.23;66.80;97370.10;104904;1260;100408;-79
2023/12/28 09:18:02;;;;;;;9.40;4.30;;;;;;;8.40;66.18;97368.12;104805;1257;99703;-80
2023/12/28 09:21:09;;;;;;;8.00;4.40;;;;;;;8.59;66.02;97358.66;104965;1256;97948;-78
2023/12/28 09:24:10;;;;;;;12.40;6.50;;;;;;;8.77;65.53;97361.94;105115;1259;98418;-85
2023/12/28 09:27:18;;;;;;;10.70;4.90;;;;;;;8.95;65.38;97355.57;104967;1254;103902;-87
2023/12/28 09:30:27;;;;;;;6.40;4.10;;;;;;;9.17;64.71;97350.01;104998;1257;100546;-87
2023/12/28 09:33:35;;;;;;;9.40;4.30;;;;;;;9.36;64.07;97342.91;104864;1258;99368;-85
2023/12/28 09:36:46;;;;;;;8.10;3.80;;;;;;;9.56;63.35;97338.79;104932;1256;98014;-86
2023/12/28 09:39:54;;;;;;;7.50;4.10;;;;;;;9.72;63.10;97330.76;104735;1265;98408;-85
2023/12/28 09:43:08;;;;;;;7.20;4.10;;;;;;;9.91;62.94;97325.31;104961;1254;102667;-86
2023/12/28 09:46:16;;;;;;;6.70;4.30;;;;;;;10.13;61.93;97322.05;104256;1278;101495;-79
2023/12/28 09:49:25;;;;;;;6.30;4.30;;;;;;;10.35;61.24;97320.19;104187;1269;99251;-77
2023/12/28 09:52:33;;;;;;;11.00;4.60;;;;;;;10.64;61.12;97318.92;104273;1267;98009;-77
2023/12/28 09:55:41;;;;;;;7.00;3.80;;;;;;;10.90;60.10;97313.83;104354;1262;98103;-79
2023/12/28 09:58:50;;;;;;;8.40;3.90;;;;;;;11.21;60.54;97314.69;104262;1267;102686;-79
2023/12/28 10:01:59;;;;;;;7.90;4.10;;;;;;;11.46;59.79;97307.04;104170;1267;101480;-76
2023/12/28 10:05:06;;;;;;;7.80;4.10;;;;;;;11.64;59.15;97301.70;104318;1275;100267;-85
2023/12/28 10:08:14;;;;;;;8.20;4.50;;;;;;;11.88;58.92;97306.44;104240;1276;99237;-85
2023/12/28 10:11:21;;;;;;;7.80;4.80;;;;;;;12.07;58.18;97303.04;104305;1268;98953;-85
2023/12/28 10:14:32;;;;;;;7.20;4.10;;;;;;;12.20;57.91;97295.05;104284;1266;104035;-84
2023/12/28 10:17:40;;;;;;;7.60;4.00;;;;;;;12.42;57.81;97293.27;104281;1271;101517;-78
2023/12/28 10:20:48;;;;;;;8.40;5.30;;;;;;;12.62;56.78;97289.16;104201;1280;100064;-80
2023/12/28 10:23:57;;;;;;;11.00;6.30;;;;;;;12.78;56.14;97284.67;104680;1255;97986;-79
2023/12/28 10:27:05;;;;;;;12.90;6.30;;;;;;;12.97;56.18;97280.66;104993;1256;98498;-91
2023/12/28 10:30:16;;;;;;;10.90;5.50;;;;;;;13.27;55.89;97275.51;104978;1266;102777;-88
2023/12/28 10:33:27;;;;;;;7.90;4.70;;;;;;;13.54;54.80;97265.78;104836;1258;101510;-82
2023/12/28 10:36:37;;;;;;;7.30;4.60;;;;;;;13.69;52.68;97263.58;104928;1256;98725;-82
2023/12/28 10:39:46;;;;;;;9.60;5.10;;;;;;;13.74;51.95;97262.92;104932;1254;99208;-80
2023/12/28 10:42:54;;;;;;;8.30;4.80;;;;;;;13.83;51.64;97259.30;104994;1255;98414;-79
2023/12/28 10:46:04;;;;;;;8.20;4.40;;;;;;;13.93;51.66;97253.94;105089;1257;103509;-77
2023/12/28 10:49:13;;;;;;;6.70;4.80;;;;;;;14.18;51.79;97256.07;105117;1253;101391;-78
2023/12/28 10:52:21;;;;;;;9.90;5.00;;;;;;;14.45;50.34;97256.35;104908;1256;99160;-79
2023/12/28 10:55:29;;;;;;;10.30;4.90;;;;;;;14.60;49.25;97254.41;104927;1259;97902;-78
2023/12/28 10:58:40;;;;;;;7.70;5.00;;;;;;;14.81;50.14;97260.58;104533;1265;98016;-85
2023/12/28 11:01:48;;;;;;;8.90;4.60;;;;;;;15.06;49.83;97264.34;103956;1267;102714;-85
2023/12/28 11:05:03;;;;;;;9.40;4.80;;;;;;;15.35;50.14;97263.46;104013;1268;100360;-85
2023/12/28 11:56:02;;;;;;;8.30;4.90;;;;;;;17.11;43.53;97225.09;105554;1262;95874;-79
2023/12/28 11:59:10;;;;;;;5.10;3.70;;;;;;;17.18;43.00;97223.77;106948;1248;101058;-78
2023/12/28 12:02:17;;;;;;;7.40;4.30;;;;;;;17.03;42.22;97225.05;106890;1250;100359;-77
2023/12/28 12:05:15;;;;;;;5.70;3.60;;;;;;;16.83;42.94;97219.48;107436;1251;99890;-78
2023/12/28 12:08:21;;;;;;;7.70;4.20;;;;;;;16.70;42.89;97217.27;107482;1243;95888;-77
2023/12/28 12:11:28;;;;;;;10.20;4.60;;;;;;;16.47;42.32;97212.55;107452;1250;97083;-77
2023/12/28 12:14:35;;;;;;;5.70;4.20;;;;;;;16.14;41.81;97209.81;107471;1249;99849;-76
2023/12/28 12:17:31;;;;;;;6.40;3.70;;;;;;;15.71;40.73;97207.16;107376;1241;100414;-87
2023/12/28 12:20:38;;;;;;;5.40;4.00;;;;;;;15.47;41.91;97202.36;107340;1243;98445;-76
2023/12/28 12:23:45;;;;;;;6.10;3.70;;;;;;;15.32;41.99;97204.34;107394;1250;96704;-77
2023/12/28 12:26:51;;;;;;;6.50;3.30;;;;;;;15.07;41.61;97205.53;107478;1244;96780;-76
2023/12/28 12:29:51;;;;;;;6.20;3.60;;;;;;;14.97;43.43;97199.04;107378;1244;99943;-77
2023/12/28 12:32:51;;;;;;;8.30;5.30;;;;;;;14.97;43.64;97194.36;107415;1253;101013;-77
2023/12/28 12:35:56;;;;;;;8.50;5.30;;;;;;;14.93;43.05;97189.51;107295;1244;99211;-90
2023/12/28 12:39:05;;;;;;;6.30;4.30;;;;;;;14.77;42.42;97181.65;107303;1250;97111;-89
2023/12/28 12:42:06;;;;;;;5.60;3.80;;;;;;;14.58;42.44;97174.89;107576;1238;95952;-89
2023/12/28 12:45:06;;;;;;;4.40;2.90;;;;;;;14.41;42.56;97180.02;107425;1243;100481;-88
2023/12/28 12:48:13;;;;;;;5.10;3.10;;;;;;;14.27;42.95;97183.25;107486;1242;100532;-88
2023/12/28 12:51:19;;;;;;;4.90;3.20;;;;;;;14.18;43.22;97177.30;107378;1243;98337;-86
2023/12/28 12:54:26;;;;;;;6.30;3.70;;;;;;;14.14;43.47;97175.25;107453;1243;95912;-88
2023/12/28 12:57:32;;;;;;;6.50;4.30;;;;;;;14.02;43.18;97167.97;107396;1243;96782;-88
2023/12/28 13:00:38;;;;;;;7.10;3.50;;;;;;;13.90;43.01;97167.05;107288;1250;99902;-84
2023/12/28 13:03:47;;;;;;;7.50;3.40;;;;;;;13.87;43.60;97168.23;107255;1242;100230;-84
2023/12/28 13:06:47;;;;;;;10.40;3.70;;;;;;;13.87;43.88;97163.47;107374;1250;98950;-90
2023/12/28 13:09:53;;;;;;;8.80;3.70;;;;;;;13.89;44.29;97163.17;107319;1245;95831;-90
2023/12/28 13:13:01;;;;;;;8.50;4.70;;;;;;;13.85;44.69;97165.09;107375;1242;95831;-91
2023/12/28 13:16:26;;;;;;;5.70;3.60;;;;;;;13.72;44.70;97162.36;107360;1249;99706;-90
2023/12/28 13:19:33;;;;;;;4.90;3.40;;;;;;;13.59;44.95;97168.02;106949;1257;100527;-90
2023/12/28 13:26:20;;;;;;;8.80;3.40;;;;;;;13.46;45.25;97167.60;105930;1255;96032;-91
2023/12/28 13:29:32;;;;;;;6.80;3.80;;;;;;;13.36;45.59;97171.55;106257;1264;96015;-91
2023/12/28 13:32:39;;;;;;;9.00;3.60;;;;;;;13.26;45.69;97167.48;105759;1260;100795;-84
2023/12/28 13:35:46;;;;;;;7.00;3.80;;;;;;;13.16;45.73;97165.24;105797;1266;100259;-90
2023/12/28 13:38:42;;;;;;;5.20;3.30;;;;;;;13.06;46.04;97167.25;105744;1268;99890;-91
2023/12/28 13:41:48;;;;;;;6.00;3.30;;;;;;;13.01;46.22;97163.93;105717;1260;96704;-93
2023/12/28 13:44:45;;;;;;;7.30;3.70;;;;;;;12.90;46.24;97162.89;105676;1267;96907;-90
2023/12/28 13:47:52;;;;;;;7.70;3.50;;;;;;;12.79;46.46;97166.83;105729;1269;99844;-85
2023/12/28 13:50:59;;;;;;;10.00;5.70;;;;;;;12.67;46.74;97170.31;106100;1253;100264;-84
2023/12/28 13:54:06;;;;;;;21.20;12.40;;;;;;;12.56;46.76;97179.92;106290;1265;98472;-85
2023/12/28 13:57:12;;;;;;;13.70;7.20;;;;;;;12.42;46.86;97173.45;106262;1263;96822;-76
2023/12/28 14:00:12;;;;;;;12.80;7.60;;;;;;;12.22;47.01;97169.02;106156;1253;96160;-75
2023/12/28 14:03:19;;;;;;;12.80;5.80;;;;;;;12.08;47.23;97172.81;106757;1251;100844;-83
2023/12/28 14:06:15;;;;;;;9.90;4.90;;;;;;;11.97;47.58;97190.08;106970;1248;101013;-83
2023/12/28 14:09:19;;;;;;;7.50;5.10;;;;;;;11.89;47.70;97197.65;107110;1248;98883;-83
2023/12/28 14:12:06;;;;;;;9.10;5.40;;;;;;;11.79;47.69;97195.92;107743;1247;95840;-78
2023/12/28 14:15:11;;;;;;;12.40;5.90;;;;;;;11.68;47.96;97194.89;107728;1238;95992;-90
2023/12/28 14:18:18;;;;;;;18.10;9.50;;;;;;;11.64;48.37;97199.25;107652;1250;100769;-91
2023/12/28 14:21:25;;;;;;;15.10;8.00;;;;;;;11.61;48.48;97204.84;107575;1243;100974;-89
2023/12/28 14:24:32;;;;;;;14.80;8.30;;;;;;;11.50;48.79;97204.08;107631;1250;98742;-90
2023/12/28 14:27:28;;;;;;;8.30;5.20;;;;;;;11.38;48.63;97202.45;107831;1235;95943;-90
2023/12/28 14:30:45;;;;;;;15.70;9.40;;;;;;;11.31;48.83;97204.21;107781;1248;95838;-91
2023/12/28 14:33:51;;;;;;;13.20;8.80;;;;;;;11.23;49.03;97211.17;106833;1247;99546;-83
2023/12/28 14:37:16;;;;;;;15.00;9.40;;;;;;;11.10;48.98;97208.80;106893;1258;101278;-83
2023/12/28 14:40:23;;;;;;;14.00;8.40;;;;;;;10.98;49.15;97213.95;106885;1248;99605;-82
2023/12/28 14:43:12;;;;;;;13.40;7.10;;;;;;;10.91;49.48;97219.01;106866;1258;96268;-82